sensor_id;sensor_type;location;lat;lon;timestamp;temperature;humidity
32769;DHT22;23049;54.304;8.826;2023-05-10T00:01:52;15.80;99.90
32769;DHT22;23049;54.304;8.826;2023-05-10T00:04:17;15.80;99.90
32769;DHT22;23049;54.304;8.826;2023-05-10T00:06:43;15.80;99.90
32769;DHT22;23049;54.304;8.826;2023-05-10T00:09:09;15.80;99.90
32769;DHT22;23049;54.304;8.826;2023-05-10T00:11:34;15.80;99.90
32769;DHT22;23049;54.304;8.826;2023-05-10T00:14:00;15.70;99.90
32769;DHT22;23049;54.304;8.826;2023-05-10T00:16:25;15.70;99.90
32769;DHT22;23049;54.304;8.826;2023-05-10T00:18:51;15.80;99.90
32769;DHT22;23049;54.304;8.826;2023-05-10T00:21:16;15.70;99.90
32769;DHT22;23049;54.304;8.826;2023-05-10T00:23:42;15.70;99.90
32769;DHT22;23049;54.304;8.826;2023-05-10T00:26:07;15.70;99.90
32769;DHT22;23049;54.304;8.826;2023-05-10T00:28:33;15.70;99.90
32769;DHT22;23049;54.304;8.826;2023-05-10T00:30:58;15.70;99.90
32769;DHT22;23049;54.304;8.826;2023-05-10T00:33:24;15.60;99.90
32769;DHT22;23049;54.304;8.826;2023-05-10T00:35:49;15.70;99.90
32769;DHT22;23049;54.304;8.826;2023-05-10T00:38:15;15.70;99.90
32769;DHT22;23049;54.304;8.826;2023-05-10T00:40:40;15.70;99.90
32769;DHT22;23049;54.304;8.826;2023-05-10T00:43:06;15.70;99.90
32769;DHT22;23049;54.304;8.826;2023-05-10T00:45:34;15.70;99.90
32769;DHT22;23049;54.304;8.826;2023-05-10T00:48:01;15.70;99.90
32769;DHT22;23049;54.304;8.826;2023-05-10T00:50:27;15.60;99.90
32769;DHT22;23049;54.304;8.826;2023-05-10T00:52:53;15.60;99.90
32769;DHT22;23049;54.304;8.826;2023-05-10T00:55:18;15.50;99.90
32769;DHT22;23049;54.304;8.826;2023-05-10T00:57:44;15.50;99.90
32769;DHT22;23049;54.304;8.826;2023-05-10T01:00:09;15.50;99.90
32769;DHT22;23049;54.304;8.826;2023-05-10T01:02:36;15.50;99.90
32769;DHT22;23049;54.304;8.826;2023-05-10T01:05:02;15.50;99.90
32769;DHT22;23049;54.304;8.826;2023-05-10T01:07:28;15.50;99.90
32769;DHT22;23049;54.304;8.826;2023-05-10T01:09:54;15.50;99.90
32769;DHT22;23049;54.304;8.826;2023-05-10T01:12:20;15.50;99.90
32769;DHT22;23049;54.304;8.826;2023-05-10T01:14:46;15.40;99.90
32769;DHT22;23049;54.304;8.826;2023-05-10T01:17:11;15.30;99.90
32769;DHT22;23049;54.304;8.826;2023-05-10T01:19:37;15.40;99.90
32769;DHT22;23049;54.304;8.826;2023-05-10T01:22:51;15.40;99.90
32769;DHT22;23049;54.304;8.826;2023-05-10T01:27:17;15.40;99.90
32769;DHT22;23049;54.304;8.826;2023-05-10T01:35:40;15.40;99.90
32769;DHT22;23049;54.304;8.826;2023-05-10T01:40:35;15.20;99.90
32769;DHT22;23049;54.304;8.826;2023-05-10T01:43:02;15.20;99.90
32769;DHT22;23049;54.304;8.826;2023-05-10T01:45:30;15.10;99.90
32769;DHT22;23049;54.304;8.826;2023-05-10T01:47:58;15.20;99.90
32769;DHT22;23049;54.304;8.826;2023-05-10T01:50:28;15.10;99.90
32769;DHT22;23049;54.304;8.826;2023-05-10T01:52:55;15.10;99.90
32769;DHT22;23049;54.304;8.826;2023-05-10T01:55:22;15.00;99.90
32769;DHT22;23049;54.304;8.826;2023-05-10T01:57:50;15.00;99.90
32769;DHT22;23049;54.304;8.826;2023-05-10T02:00:16;15.00;99.90
32769;DHT22;23049;54.304;8.826;2023-05-10T02:02:44;14.90;99.90
32769;DHT22;23049;54.304;8.826;2023-05-10T02:05:11;14.90;99.90
32769;DHT22;23049;54.304;8.826;2023-05-10T02:07:37;14.90;99.90
32769;DHT22;23049;54.304;8.826;2023-05-10T02:10:06;14.90;99.90
32769;DHT22;23049;54.304;8.826;2023-05-10T02:12:36;14.80;99.90
32769;DHT22;23049;54.304;8.826;2023-05-10T02:15:04;14.70;99.90
32769;DHT22;23049;54.304;8.826;2023-05-10T02:17:31;14.70;99.90
32769;DHT22;23049;54.304;8.826;2023-05-10T02:19:57;14.60;99.90
32769;DHT22;23049;54.304;8.826;2023-05-10T02:22:24;14.60;99.90
32769;DHT22;23049;54.304;8.826;2023-05-10T02:24:50;14.60;99.90
32769;DHT22;23049;54.304;8.826;2023-05-10T02:27:15;14.60;99.90
32769;DHT22;23049;54.304;8.826;2023-05-10T02:29:42;14.50;99.90
32769;DHT22;23049;54.304;8.826;2023-05-10T02:32:08;14.50;99.90
32769;DHT22;23049;54.304;8.826;2023-05-10T02:34:35;14.40;99.90
32769;DHT22;23049;54.304;8.826;2023-05-10T02:37:01;14.30;99.90
32769;DHT22;23049;54.304;8.826;2023-05-10T02:39:27;14.20;99.90
32769;DHT22;23049;54.304;8.826;2023-05-10T02:41:53;14.20;99.90
32769;DHT22;23049;54.304;8.826;2023-05-10T02:44:20;14.10;99.90
32769;DHT22;23049;54.304;8.826;2023-05-10T02:46:47;14.10;99.90
32769;DHT22;23049;54.304;8.826;2023-05-10T02:49:13;14.10;99.90
32769;DHT22;23049;54.304;8.826;2023-05-10T02:51:44;14.10;99.90
32769;DHT22;23049;54.304;8.826;2023-05-10T02:54:11;14.00;99.90
32769;DHT22;23049;54.304;8.826;2023-05-10T02:56:40;13.90;99.90
32769;DHT22;23049;54.304;8.826;2023-05-10T02:59:06;13.90;99.90
32769;DHT22;23049;54.304;8.826;2023-05-10T03:01:31;13.80;99.90
32769;DHT22;23049;54.304;8.826;2023-05-10T03:06:12;13.70;99.90
32769;DHT22;23049;54.304;8.826;2023-05-10T03:08:37;13.60;99.90
32769;DHT22;23049;54.304;8.826;2023-05-10T03:11:16;13.60;99.90
32769;DHT22;23049;54.304;8.826;2023-05-10T03:13:56;13.60;99.90
32769;DHT22;23049;54.304;8.826;2023-05-10T03:16:29;13.60;99.90
32769;DHT22;23049;54.304;8.826;2023-05-10T03:19:12;13.70;99.90
32769;DHT22;23049;54.304;8.826;2023-05-10T03:21:41;13.60;99.90
32769;DHT22;23049;54.304;8.826;2023-05-10T03:24:08;13.60;99.90
32769;DHT22;23049;54.304;8.826;2023-05-10T03:26:37;13.70;99.90
32769;DHT22;23049;54.304;8.826;2023-05-10T03:29:04;13.70;99.90
32769;DHT22;23049;54.304;8.826;2023-05-10T03:31:30;13.70;99.90
32769;DHT22;23049;54.304;8.826;2023-05-10T03:33:55;13.60;99.90
32769;DHT22;23049;54.304;8.826;2023-05-10T03:36:21;13.60;99.90
32769;DHT22;23049;54.304;8.826;2023-05-10T03:38:46;13.60;99.90
32769;DHT22;23049;54.304;8.826;2023-05-10T03:41:12;13.60;99.90
32769;DHT22;23049;54.304;8.826;2023-05-10T03:43:37;13.60;99.90
32769;DHT22;23049;54.304;8.826;2023-05-10T03:46:04;13.60;99.90
32769;DHT22;23049;54.304;8.826;2023-05-10T03:48:29;13.50;99.90
32769;DHT22;23049;54.304;8.826;2023-05-10T03:50:55;13.50;99.90
32769;DHT22;23049;54.304;8.826;2023-05-10T03:53:21;13.50;99.90
32769;DHT22;23049;54.304;8.826;2023-05-10T03:55:46;13.50;99.90
32769;DHT22;23049;54.304;8.826;2023-05-10T03:58:12;13.40;99.90
32769;DHT22;23049;54.304;8.826;2023-05-10T04:00:37;13.30;99.90
32769;DHT22;23049;54.304;8.826;2023-05-10T04:03:09;13.40;99.90
32769;DHT22;23049;54.304;8.826;2023-05-10T04:05:34;13.40;99.90
32769;DHT22;23049;54.304;8.826;2023-05-10T04:08:00;13.30;99.90
32769;DHT22;23049;54.304;8.826;2023-05-10T04:10:25;13.20;99.90
32769;DHT22;23049;54.304;8.826;2023-05-10T04:12:51;13.20;99.90
32769;DHT22;23049;54.304;8.826;2023-05-10T04:15:16;13.30;99.90
32769;DHT22;23049;54.304;8.826;2023-05-10T04:17:42;13.20;99.90
32769;DHT22;23049;54.304;8.826;2023-05-10T04:20:08;13.10;99.90
32769;DHT22;23049;54.304;8.826;2023-05-10T04:22:33;12.80;99.90
32769;DHT22;23049;54.304;8.826;2023-05-10T04:24:59;12.60;99.90
32769;DHT22;23049;54.304;8.826;2023-05-10T04:27:24;12.40;99.90
32769;DHT22;23049;54.304;8.826;2023-05-10T04:29:50;12.30;99.90
32769;DHT22;23049;54.304;8.826;2023-05-10T04:32:16;12.10;99.90
32769;DHT22;23049;54.304;8.826;2023-05-10T04:34:43;12.10;99.90
32769;DHT22;23049;54.304;8.826;2023-05-10T04:37:08;12.10;99.90
32769;DHT22;23049;54.304;8.826;2023-05-10T04:41:48;12.10;99.90
32769;DHT22;23049;54.304;8.826;2023-05-10T04:44:14;12.10;99.90
32769;DHT22;23049;54.304;8.826;2023-05-10T04:46:39;12.10;99.90
32769;DHT22;23049;54.304;8.826;2023-05-10T04:49:05;12.00;99.90
32769;DHT22;23049;54.304;8.826;2023-05-10T04:51:31;11.90;99.90
32769;DHT22;23049;54.304;8.826;2023-05-10T04:53:57;12.00;99.90
32769;DHT22;23049;54.304;8.826;2023-05-10T04:56:22;12.00;99.90
32769;DHT22;23049;54.304;8.826;2023-05-10T04:58:48;12.10;99.90
32769;DHT22;23049;54.304;8.826;2023-05-10T05:01:14;12.20;99.90
32769;DHT22;23049;54.304;8.826;2023-05-10T05:03:40;12.20;99.90
32769;DHT22;23049;54.304;8.826;2023-05-10T05:06:05;12.30;99.90
32769;DHT22;23049;54.304;8.826;2023-05-10T05:08:31;12.40;99.90
32769;DHT22;23049;54.304;8.826;2023-05-10T05:10:56;12.40;99.90
32769;DHT22;23049;54.304;8.826;2023-05-10T05:13:22;12.60;99.90
32769;DHT22;23049;54.304;8.826;2023-05-10T05:15:47;12.60;99.90
32769;DHT22;23049;54.304;8.826;2023-05-10T05:18:13;12.70;99.90
32769;DHT22;23049;54.304;8.826;2023-05-10T05:20:38;12.90;99.90
32769;DHT22;23049;54.304;8.826;2023-05-10T05:23:04;13.20;99.90
32769;DHT22;23049;54.304;8.826;2023-05-10T05:25:29;13.50;99.90
32769;DHT22;23049;54.304;8.826;2023-05-10T05:27:55;13.50;99.90
32769;DHT22;23049;54.304;8.826;2023-05-10T05:30:20;13.80;99.90
32769;DHT22;23049;54.304;8.826;2023-05-10T05:32:46;14.00;99.90
32769;DHT22;23049;54.304;8.826;2023-05-10T05:35:12;14.00;99.90
32769;DHT22;23049;54.304;8.826;2023-05-10T05:37:37;14.10;99.90
32769;DHT22;23049;54.304;8.826;2023-05-10T05:40:03;14.10;99.90
32769;DHT22;23049;54.304;8.826;2023-05-10T05:42:30;14.30;99.90
32769;DHT22;23049;54.304;8.826;2023-05-10T05:44:56;14.40;99.90
32769;DHT22;23049;54.304;8.826;2023-05-10T05:47:21;14.50;99.90
32769;DHT22;23049;54.304;8.826;2023-05-10T05:49:46;14.50;99.90
32769;DHT22;23049;54.304;8.826;2023-05-10T05:52:12;14.40;99.90
32769;DHT22;23049;54.304;8.826;2023-05-10T05:54:38;14.40;99.90
32769;DHT22;23049;54.304;8.826;2023-05-10T05:57:03;14.40;99.90
32769;DHT22;23049;54.304;8.826;2023-05-10T05:59:29;14.50;99.90
32769;DHT22;23049;54.304;8.826;2023-05-10T06:01:54;14.50;99.90
32769;DHT22;23049;54.304;8.826;2023-05-10T06:04:20;14.60;99.90
32769;DHT22;23049;54.304;8.826;2023-05-10T06:06:45;14.60;99.90
32769;DHT22;23049;54.304;8.826;2023-05-10T06:09:11;14.60;99.90
32769;DHT22;23049;54.304;8.826;2023-05-10T06:11:37;14.60;99.90
32769;DHT22;23049;54.304;8.826;2023-05-10T06:14:02;14.60;99.90
32769;DHT22;23049;54.304;8.826;2023-05-10T06:16:29;14.50;99.90
32769;DHT22;23049;54.304;8.826;2023-05-10T06:18:55;14.50;99.90
32769;DHT22;23049;54.304;8.826;2023-05-10T06:21:21;14.40;99.90
32769;DHT22;23049;54.304;8.826;2023-05-10T06:23:46;14.50;99.90
32769;DHT22;23049;54.304;8.826;2023-05-10T06:26:12;14.50;99.90
32769;DHT22;23049;54.304;8.826;2023-05-10T06:28:39;14.60;99.90
32769;DHT22;23049;54.304;8.826;2023-05-10T06:31:04;14.60;99.90
32769;DHT22;23049;54.304;8.826;2023-05-10T06:33:30;14.70;99.90
32769;DHT22;23049;54.304;8.826;2023-05-10T06:35:55;14.80;99.90
32769;DHT22;23049;54.304;8.826;2023-05-10T06:38:21;14.80;99.90
32769;DHT22;23049;54.304;8.826;2023-05-10T06:40:46;14.70;99.90
32769;DHT22;23049;54.304;8.826;2023-05-10T06:43:12;14.70;99.90
32769;DHT22;23049;54.304;8.826;2023-05-10T06:45:37;14.80;99.90
32769;DHT22;23049;54.304;8.826;2023-05-10T06:48:03;14.80;99.90
32769;DHT22;23049;54.304;8.826;2023-05-10T06:50:28;14.90;99.90
32769;DHT22;23049;54.304;8.826;2023-05-10T06:52:54;14.90;99.90
32769;DHT22;23049;54.304;8.826;2023-05-10T06:55:21;15.00;99.90
32769;DHT22;23049;54.304;8.826;2023-05-10T06:57:46;15.10;99.90
32769;DHT22;23049;54.304;8.826;2023-05-10T07:00:13;15.10;99.90
32769;DHT22;23049;54.304;8.826;2023-05-10T07:02:39;15.10;99.90
32769;DHT22;23049;54.304;8.826;2023-05-10T07:05:04;15.20;99.90
32769;DHT22;23049;54.304;8.826;2023-05-10T07:07:30;15.30;99.90
32769;DHT22;23049;54.304;8.826;2023-05-10T07:09:55;15.30;99.90
32769;DHT22;23049;54.304;8.826;2023-05-10T07:12:23;15.40;99.90
32769;DHT22;23049;54.304;8.826;2023-05-10T07:14:48;15.50;99.90
32769;DHT22;23049;54.304;8.826;2023-05-10T07:17:14;15.60;99.90
32769;DHT22;23049;54.304;8.826;2023-05-10T07:19:39;15.70;99.90
32769;DHT22;23049;54.304;8.826;2023-05-10T07:22:05;15.90;99.90
32769;DHT22;23049;54.304;8.826;2023-05-10T07:24:31;15.90;99.90
32769;DHT22;23049;54.304;8.826;2023-05-10T07:26:57;15.90;99.90
32769;DHT22;23049;54.304;8.826;2023-05-10T07:29:22;15.90;99.90
32769;DHT22;23049;54.304;8.826;2023-05-10T07:31:48;15.90;99.90
32769;DHT22;23049;54.304;8.826;2023-05-10T07:34:13;15.80;99.90
32769;DHT22;23049;54.304;8.826;2023-05-10T07:36:39;15.80;99.90
32769;DHT22;23049;54.304;8.826;2023-05-10T07:39:04;15.80;99.90
32769;DHT22;23049;54.304;8.826;2023-05-10T07:41:30;15.80;99.90
32769;DHT22;23049;54.304;8.826;2023-05-10T07:43:56;15.80;99.90
32769;DHT22;23049;54.304;8.826;2023-05-10T07:46:21;15.80;99.90
32769;DHT22;23049;54.304;8.826;2023-05-10T07:48:46;15.70;99.90
32769;DHT22;23049;54.304;8.826;2023-05-10T07:51:12;15.70;99.90
32769;DHT22;23049;54.304;8.826;2023-05-10T07:53:38;15.70;99.90
32769;DHT22;23049;54.304;8.826;2023-05-10T07:56:20;15.80;99.90
32769;DHT22;23049;54.304;8.826;2023-05-10T07:58:46;15.80;99.90
32769;DHT22;23049;54.304;8.826;2023-05-10T08:01:11;15.80;99.90
32769;DHT22;23049;54.304;8.826;2023-05-10T08:03:36;16.00;99.90
32769;DHT22;23049;54.304;8.826;2023-05-10T08:06:02;16.10;99.90
32769;DHT22;23049;54.304;8.826;2023-05-10T08:08:28;16.20;99.90
32769;DHT22;23049;54.304;8.826;2023-05-10T08:10:54;16.20;99.90
32769;DHT22;23049;54.304;8.826;2023-05-10T08:13:19;16.20;99.90
32769;DHT22;23049;54.304;8.826;2023-05-10T08:15:45;16.20;99.90
32769;DHT22;23049;54.304;8.826;2023-05-10T08:18:10;16.20;99.90
32769;DHT22;23049;54.304;8.826;2023-05-10T08:20:35;16.20;99.90
32769;DHT22;23049;54.304;8.826;2023-05-10T08:23:01;16.30;99.90
32769;DHT22;23049;54.304;8.826;2023-05-10T08:25:27;16.40;99.90
32769;DHT22;23049;54.304;8.826;2023-05-10T08:27:52;16.40;99.90
32769;DHT22;23049;54.304;8.826;2023-05-10T08:30:18;16.50;99.90
32769;DHT22;23049;54.304;8.826;2023-05-10T08:32:43;16.50;99.90
32769;DHT22;23049;54.304;8.826;2023-05-10T08:35:08;16.40;99.90
32769;DHT22;23049;54.304;8.826;2023-05-10T08:37:34;16.30;99.90
32769;DHT22;23049;54.304;8.826;2023-05-10T08:40:00;16.30;99.90
32769;DHT22;23049;54.304;8.826;2023-05-10T08:42:25;16.30;99.90
32769;DHT22;23049;54.304;8.826;2023-05-10T08:44:53;16.20;99.90
32769;DHT22;23049;54.304;8.826;2023-05-10T08:47:19;16.00;99.90
32769;DHT22;23049;54.304;8.826;2023-05-10T08:49:46;16.00;99.90
32769;DHT22;23049;54.304;8.826;2023-05-10T08:52:13;15.90;99.90
32769;DHT22;23049;54.304;8.826;2023-05-10T08:54:40;16.00;99.90
32769;DHT22;23049;54.304;8.826;2023-05-10T08:57:06;16.00;99.90
32769;DHT22;23049;54.304;8.826;2023-05-10T08:59:31;15.90;99.90
32769;DHT22;23049;54.304;8.826;2023-05-10T09:01:58;16.00;99.90
32769;DHT22;23049;54.304;8.826;2023-05-10T09:04:24;16.10;99.90
32769;DHT22;23049;54.304;8.826;2023-05-10T09:06:50;15.90;99.90
32769;DHT22;23049;54.304;8.826;2023-05-10T09:09:16;15.90;99.90
32769;DHT22;23049;54.304;8.826;2023-05-10T09:11:42;15.90;99.90
32769;DHT22;23049;54.304;8.826;2023-05-10T09:14:08;15.80;99.90
32769;DHT22;23049;54.304;8.826;2023-05-10T09:16:34;15.70;99.90
32769;DHT22;23049;54.304;8.826;2023-05-10T09:19:00;15.80;99.90
32769;DHT22;23049;54.304;8.826;2023-05-10T09:21:25;15.80;99.90
32769;DHT22;23049;54.304;8.826;2023-05-10T09:23:51;15.80;99.90
32769;DHT22;23049;54.304;8.826;2023-05-10T09:26:22;15.80;99.90
32769;DHT22;23049;54.304;8.826;2023-05-10T09:28:55;15.80;99.90
32769;DHT22;23049;54.304;8.826;2023-05-10T09:31:21;16.00;99.90
32769;DHT22;23049;54.304;8.826;2023-05-10T09:33:47;16.10;99.90
32769;DHT22;23049;54.304;8.826;2023-05-10T09:36:13;16.10;99.90
32769;DHT22;23049;54.304;8.826;2023-05-10T09:38:48;16.10;99.90
32769;DHT22;23049;54.304;8.826;2023-05-10T09:41:15;16.00;99.90
32769;DHT22;23049;54.304;8.826;2023-05-10T09:43:41;15.80;99.90
32769;DHT22;23049;54.304;8.826;2023-05-10T09:46:08;15.50;99.90
32769;DHT22;23049;54.304;8.826;2023-05-10T09:48:34;15.30;99.90
32769;DHT22;23049;54.304;8.826;2023-05-10T09:50:59;15.20;99.90
32769;DHT22;23049;54.304;8.826;2023-05-10T09:53:25;15.00;99.90
32769;DHT22;23049;54.304;8.826;2023-05-10T09:55:51;15.00;99.90
32769;DHT22;23049;54.304;8.826;2023-05-10T09:58:17;14.90;99.90
32769;DHT22;23049;54.304;8.826;2023-05-10T10:00:43;14.80;99.90
32769;DHT22;23049;54.304;8.826;2023-05-10T10:03:12;14.80;99.90
32769;DHT22;23049;54.304;8.826;2023-05-10T10:05:39;14.70;99.90
32769;DHT22;23049;54.304;8.826;2023-05-10T10:08:05;14.70;99.90
32769;DHT22;23049;54.304;8.826;2023-05-10T10:10:31;14.70;99.90
32769;DHT22;23049;54.304;8.826;2023-05-10T10:12:57;14.70;99.90
32769;DHT22;23049;54.304;8.826;2023-05-10T10:15:23;14.80;99.90
32769;DHT22;23049;54.304;8.826;2023-05-10T10:17:49;14.70;99.90
32769;DHT22;23049;54.304;8.826;2023-05-10T10:20:15;14.80;99.90
32769;DHT22;23049;54.304;8.826;2023-05-10T10:22:41;14.80;99.90
32769;DHT22;23049;54.304;8.826;2023-05-10T10:25:07;14.80;99.90
32769;DHT22;23049;54.304;8.826;2023-05-10T10:27:45;14.80;99.90
32769;DHT22;23049;54.304;8.826;2023-05-10T10:35:22;14.90;99.90
32769;DHT22;23049;54.304;8.826;2023-05-10T10:37:50;14.90;99.90
32769;DHT22;23049;54.304;8.826;2023-05-10T10:40:29;14.90;99.90
32769;DHT22;23049;54.304;8.826;2023-05-10T10:42:55;14.90;99.90
32769;DHT22;23049;54.304;8.826;2023-05-10T10:45:21;14.90;99.90
32769;DHT22;23049;54.304;8.826;2023-05-10T10:47:47;15.00;99.90
32769;DHT22;23049;54.304;8.826;2023-05-10T10:50:13;15.10;99.90
32769;DHT22;23049;54.304;8.826;2023-05-10T10:52:39;15.10;99.90
32769;DHT22;23049;54.304;8.826;2023-05-10T10:55:09;15.10;99.90
32769;DHT22;23049;54.304;8.826;2023-05-10T11:02:45;14.90;99.90
32769;DHT22;23049;54.304;8.826;2023-05-10T11:07:57;14.70;99.90
32769;DHT22;23049;54.304;8.826;2023-05-10T11:10:23;14.80;99.90
32769;DHT22;23049;54.304;8.826;2023-05-10T11:13:02;14.80;99.90
32769;DHT22;23049;54.304;8.826;2023-05-10T11:15:28;14.80;99.90
32769;DHT22;23049;54.304;8.826;2023-05-10T11:17:54;14.90;99.90
32769;DHT22;23049;54.304;8.826;2023-05-10T11:20:21;14.90;99.90
32769;DHT22;23049;54.304;8.826;2023-05-10T11:22:53;14.90;99.90
32769;DHT22;23049;54.304;8.826;2023-05-10T11:25:19;15.10;99.90
32769;DHT22;23049;54.304;8.826;2023-05-10T11:27:45;15.10;99.90
32769;DHT22;23049;54.304;8.826;2023-05-10T11:30:10;15.20;99.90
32769;DHT22;23049;54.304;8.826;2023-05-10T11:32:37;15.30;99.90
32769;DHT22;23049;54.304;8.826;2023-05-10T11:35:07;15.40;99.90
32769;DHT22;23049;54.304;8.826;2023-05-10T11:37:33;15.40;99.90
32769;DHT22;23049;54.304;8.826;2023-05-10T11:39:59;15.50;99.90
32769;DHT22;23049;54.304;8.826;2023-05-10T11:42:25;15.50;99.90
32769;DHT22;23049;54.304;8.826;2023-05-10T11:44:50;15.50;99.90
32769;DHT22;23049;54.304;8.826;2023-05-10T11:47:16;15.50;99.90
32769;DHT22;23049;54.304;8.826;2023-05-10T11:49:44;15.50;99.90
32769;DHT22;23049;54.304;8.826;2023-05-10T11:52:10;15.50;99.90
32769;DHT22;23049;54.304;8.826;2023-05-10T11:54:46;15.40;99.90
32769;DHT22;23049;54.304;8.826;2023-05-10T11:57:15;15.40;99.90
32769;DHT22;23049;54.304;8.826;2023-05-10T11:59:41;15.40;99.90
32769;DHT22;23049;54.304;8.826;2023-05-10T12:02:06;15.30;99.90
32769;DHT22;23049;54.304;8.826;2023-05-10T12:04:32;15.30;99.90
32769;DHT22;23049;54.304;8.826;2023-05-10T12:06:57;15.20;99.90
32769;DHT22;23049;54.304;8.826;2023-05-10T12:09:23;15.10;99.90
32769;DHT22;23049;54.304;8.826;2023-05-10T12:11:48;15.00;99.90
32769;DHT22;23049;54.304;8.826;2023-05-10T12:14:14;15.00;99.90
32769;DHT22;23049;54.304;8.826;2023-05-10T12:16:40;15.10;99.90
32769;DHT22;23049;54.304;8.826;2023-05-10T12:19:08;15.10;99.90
32769;DHT22;23049;54.304;8.826;2023-05-10T12:21:33;15.10;99.90
32769;DHT22;23049;54.304;8.826;2023-05-10T12:24:01;15.10;99.90
32769;DHT22;23049;54.304;8.826;2023-05-10T12:26:27;15.10;99.90
32769;DHT22;23049;54.304;8.826;2023-05-10T12:28:53;15.10;99.90
32769;DHT22;23049;54.304;8.826;2023-05-10T12:31:19;15.20;99.90
32769;DHT22;23049;54.304;8.826;2023-05-10T12:33:44;15.10;99.90
32769;DHT22;23049;54.304;8.826;2023-05-10T12:36:15;15.00;99.90
32769;DHT22;23049;54.304;8.826;2023-05-10T12:38:41;15.00;99.90
32769;DHT22;23049;54.304;8.826;2023-05-10T12:41:14;15.00;99.90
32769;DHT22;23049;54.304;8.826;2023-05-10T12:43:39;14.90;99.90
32769;DHT22;23049;54.304;8.826;2023-05-10T12:46:06;14.90;99.90
32769;DHT22;23049;54.304;8.826;2023-05-10T12:48:31;14.90;99.90
32769;DHT22;23049;54.304;8.826;2023-05-10T12:50:59;14.90;99.90
32769;DHT22;23049;54.304;8.826;2023-05-10T12:53:24;14.90;99.90
32769;DHT22;23049;54.304;8.826;2023-05-10T12:55:50;15.00;99.90
32769;DHT22;23049;54.304;8.826;2023-05-10T12:58:15;15.10;99.90
32769;DHT22;23049;54.304;8.826;2023-05-10T13:00:41;15.10;99.90
32769;DHT22;23049;54.304;8.826;2023-05-10T13:03:06;15.00;99.90
32769;DHT22;23049;54.304;8.826;2023-05-10T13:05:32;15.00;99.90
32769;DHT22;23049;54.304;8.826;2023-05-10T13:07:58;15.00;99.90
32769;DHT22;23049;54.304;8.826;2023-05-10T13:10:23;15.00;99.90
32769;DHT22;23049;54.304;8.826;2023-05-10T13:12:50;15.00;99.90
32769;DHT22;23049;54.304;8.826;2023-05-10T13:15:15;15.00;99.90
32769;DHT22;23049;54.304;8.826;2023-05-10T13:17:41;15.10;99.90
32769;DHT22;23049;54.304;8.826;2023-05-10T13:20:08;15.00;99.90
32769;DHT22;23049;54.304;8.826;2023-05-10T13:22:34;15.00;99.90
32769;DHT22;23049;54.304;8.826;2023-05-10T13:25:00;15.00;99.90
32769;DHT22;23049;54.304;8.826;2023-05-10T13:27:25;15.10;99.90
32769;DHT22;23049;54.304;8.826;2023-05-10T13:29:51;15.10;99.90
32769;DHT22;23049;54.304;8.826;2023-05-10T13:32:16;15.10;99.90
32769;DHT22;23049;54.304;8.826;2023-05-10T13:34:42;15.10;99.90
32769;DHT22;23049;54.304;8.826;2023-05-10T13:37:07;15.10;99.90
32769;DHT22;23049;54.304;8.826;2023-05-10T13:39:33;15.10;99.90
32769;DHT22;23049;54.304;8.826;2023-05-10T13:41:59;15.10;99.90
32769;DHT22;23049;54.304;8.826;2023-05-10T13:44:25;15.10;99.90
32769;DHT22;23049;54.304;8.826;2023-05-10T13:46:51;15.00;99.90
32769;DHT22;23049;54.304;8.826;2023-05-10T13:49:16;15.00;99.90
32769;DHT22;23049;54.304;8.826;2023-05-10T13:51:42;15.00;99.90
32769;DHT22;23049;54.304;8.826;2023-05-10T13:54:08;15.00;99.90
32769;DHT22;23049;54.304;8.826;2023-05-10T13:56:34;15.00;99.90
32769;DHT22;23049;54.304;8.826;2023-05-10T13:58:59;15.10;99.90
32769;DHT22;23049;54.304;8.826;2023-05-10T14:01:25;15.10;99.90
32769;DHT22;23049;54.304;8.826;2023-05-10T14:03:51;15.10;99.90
32769;DHT22;23049;54.304;8.826;2023-05-10T14:06:16;15.10;99.90
32769;DHT22;23049;54.304;8.826;2023-05-10T14:08:42;15.10;99.90
32769;DHT22;23049;54.304;8.826;2023-05-10T14:11:08;15.10;99.90
32769;DHT22;23049;54.304;8.826;2023-05-10T14:13:33;15.10;99.90
32769;DHT22;23049;54.304;8.826;2023-05-10T14:15:59;15.20;99.90
32769;DHT22;23049;54.304;8.826;2023-05-10T14:18:26;15.30;99.90
32769;DHT22;23049;54.304;8.826;2023-05-10T14:20:51;15.20;99.90
32769;DHT22;23049;54.304;8.826;2023-05-10T14:23:17;15.30;99.90
32769;DHT22;23049;54.304;8.826;2023-05-10T14:25:44;15.20;99.90
32769;DHT22;23049;54.304;8.826;2023-05-10T14:28:10;15.30;99.90
32769;DHT22;23049;54.304;8.826;2023-05-10T14:30:36;15.40;99.90
32769;DHT22;23049;54.304;8.826;2023-05-10T14:33:01;15.40;99.90
32769;DHT22;23049;54.304;8.826;2023-05-10T14:35:27;15.40;99.90
32769;DHT22;23049;54.304;8.826;2023-05-10T14:37:53;15.40;99.90
32769;DHT22;23049;54.304;8.826;2023-05-10T14:40:19;15.30;99.90
32769;DHT22;23049;54.304;8.826;2023-05-10T14:42:44;15.30;99.90
32769;DHT22;23049;54.304;8.826;2023-05-10T14:45:10;15.40;99.90
32769;DHT22;23049;54.304;8.826;2023-05-10T14:47:36;15.40;99.90
32769;DHT22;23049;54.304;8.826;2023-05-10T14:50:01;15.20;99.90
32769;DHT22;23049;54.304;8.826;2023-05-10T14:52:27;15.20;99.90
32769;DHT22;23049;54.304;8.826;2023-05-10T14:54:53;15.20;99.90
32769;DHT22;23049;54.304;8.826;2023-05-10T14:57:18;15.20;99.90
32769;DHT22;23049;54.304;8.826;2023-05-10T14:59:44;15.10;99.90
32769;DHT22;23049;54.304;8.826;2023-05-10T15:02:09;15.10;99.90
32769;DHT22;23049;54.304;8.826;2023-05-10T15:04:35;15.10;99.90
32769;DHT22;23049;54.304;8.826;2023-05-10T15:07:01;15.10;99.90
32769;DHT22;23049;54.304;8.826;2023-05-10T15:09:26;15.00;99.90
32769;DHT22;23049;54.304;8.826;2023-05-10T15:11:53;15.00;99.90
32769;DHT22;23049;54.304;8.826;2023-05-10T15:14:18;14.80;99.90
32769;DHT22;23049;54.304;8.826;2023-05-10T15:16:44;14.80;99.90
32769;DHT22;23049;54.304;8.826;2023-05-10T15:19:09;14.70;99.90
32769;DHT22;23049;54.304;8.826;2023-05-10T15:21:35;14.70;99.90
32769;DHT22;23049;54.304;8.826;2023-05-10T15:24:06;14.60;99.90
32769;DHT22;23049;54.304;8.826;2023-05-10T15:26:31;14.60;99.90
32769;DHT22;23049;54.304;8.826;2023-05-10T15:28:57;14.50;99.90
32769;DHT22;23049;54.304;8.826;2023-05-10T15:31:23;14.40;99.90
32769;DHT22;23049;54.304;8.826;2023-05-10T15:33:49;14.40;99.90
32769;DHT22;23049;54.304;8.826;2023-05-10T15:36:14;14.30;99.90
32769;DHT22;23049;54.304;8.826;2023-05-10T15:38:40;14.30;99.90
32769;DHT22;23049;54.304;8.826;2023-05-10T15:41:05;14.30;99.90
32769;DHT22;23049;54.304;8.826;2023-05-10T15:43:31;14.10;99.90
32769;DHT22;23049;54.304;8.826;2023-05-10T15:45:56;14.20;99.90
32769;DHT22;23049;54.304;8.826;2023-05-10T15:48:22;14.20;99.90
32769;DHT22;23049;54.304;8.826;2023-05-10T15:50:48;14.30;99.90
32769;DHT22;23049;54.304;8.826;2023-05-10T15:53:13;14.30;99.90